createdAt,value
2017-06-25T00:00:26.388Z,60.7
2017-06-25T00:02:28.076Z,60.9
2017-06-25T00:04:29.764Z,60.2
2017-06-25T00:06:31.480Z,60.5
2017-06-25T00:08:33.162Z,60.6
2017-06-25T00:10:34.849Z,61.1
2017-06-25T00:12:36.561Z,61.0
2017-06-25T00:14:38.249Z,60.8
2017-06-25T00:16:39.961Z,60.7
2017-06-25T00:18:41.652Z,60.5
2017-06-25T00:20:43.334Z,60.2
2017-06-25T00:22:45.044Z,60.3
2017-06-25T00:24:46.728Z,60.8
2017-06-25T00:26:48.463Z,60.5
2017-06-25T00:28:50.161Z,60.4
2017-06-25T00:30:51.847Z,60.8
2017-06-25T00:32:53.564Z,60.5
2017-06-25T00:34:55.248Z,60.2
2017-06-25T00:36:56.937Z,60.2
2017-06-25T00:38:58.646Z,60.6
2017-06-25T00:41:00.332Z,60.5
2017-06-25T00:43:02.046Z,60.3
2017-06-25T00:45:03.749Z,60.4
2017-06-25T00:47:05.436Z,60.3
2017-06-25T00:49:07.143Z,60.0
2017-06-25T00:51:08.831Z,60.3
2017-06-25T00:53:10.519Z,60.4
2017-06-25T00:55:12.232Z,60.6
2017-06-25T00:57:13.921Z,60.3
2017-06-25T00:59:15.633Z,60.3
2017-06-25T01:01:17.318Z,59.9
2017-06-25T01:03:19.003Z,60.0
2017-06-25T01:05:20.714Z,59.9
2017-06-25T01:07:22.396Z,60.2
2017-06-25T01:09:24.110Z,59.9
2017-06-25T01:11:25.799Z,59.9
2017-06-25T01:13:27.488Z,59.8
2017-06-25T01:15:29.198Z,59.8
2017-06-25T01:17:30.891Z,60.2
2017-06-25T01:19:32.603Z,60.2
2017-06-25T01:21:34.296Z,60.3
2017-06-25T01:23:35.981Z,59.8
2017-06-25T01:25:37.697Z,60.3
2017-06-25T01:27:39.386Z,59.6
2017-06-25T01:29:41.070Z,59.8
2017-06-25T01:31:42.776Z,59.8
2017-06-25T01:33:44.466Z,59.7
2017-06-25T01:35:46.178Z,59.7
2017-06-25T01:37:47.904Z,60.2
2017-06-25T01:39:49.591Z,60.3
2017-06-25T01:41:51.302Z,59.6
2017-06-25T01:43:52.991Z,60.1
2017-06-25T01:45:54.673Z,59.6
2017-06-25T01:47:56.388Z,60.2
2017-06-25T01:49:58.074Z,60.2
2017-06-25T01:51:59.792Z,60.5
2017-06-25T01:54:01.479Z,60.0
2017-06-25T01:56:03.168Z,60.4
2017-06-25T01:58:04.901Z,60.4
2017-06-25T02:00:06.584Z,60.1
2017-06-25T02:02:08.267Z,59.8
2017-06-25T02:04:09.976Z,59.8
2017-06-25T02:06:11.660Z,60.3
2017-06-25T02:08:13.378Z,60.3
2017-06-25T02:10:15.061Z,60.3
2017-06-25T02:12:16.746Z,60.0
2017-06-25T02:14:18.454Z,59.3
2017-06-25T02:16:20.146Z,59.5
2017-06-25T02:18:21.827Z,59.8
2017-06-25T02:20:23.537Z,59.6
2017-06-25T02:22:25.224Z,59.7
2017-06-25T02:24:26.910Z,59.7
2017-06-25T02:26:28.621Z,59.6
2017-06-25T02:28:30.302Z,59.8
2017-06-25T02:30:32.010Z,59.7
2017-06-25T02:32:33.699Z,59.8
2017-06-25T02:34:35.387Z,59.4
2017-06-25T02:36:37.115Z,59.8
2017-06-25T02:38:38.799Z,59.5
2017-06-25T02:40:40.518Z,59.6
2017-06-25T02:42:42.204Z,59.5
2017-06-25T02:44:43.890Z,59.8
2017-06-25T02:46:45.606Z,59.3
2017-06-25T02:48:47.293Z,59.6
2017-06-25T02:50:48.982Z,59.5
2017-06-25T02:52:50.694Z,59.7
2017-06-25T02:54:52.400Z,59.5
2017-06-25T02:56:54.072Z,59.3
2017-06-25T02:58:55.784Z,59.5
2017-06-25T03:00:57.467Z,58.8
2017-06-25T03:02:59.175Z,59.4
2017-06-25T03:05:00.862Z,59.5
2017-06-25T03:07:02.547Z,59.6
2017-06-25T03:09:04.269Z,59.5
2017-06-25T03:11:05.957Z,58.9
2017-06-25T03:13:07.670Z,58.9
2017-06-25T03:15:09.359Z,58.8
2017-06-25T03:17:11.045Z,59.4
2017-06-25T03:19:12.763Z,59.2
2017-06-25T03:21:14.448Z,58.9
2017-06-25T03:23:16.133Z,59.1
2017-06-25T03:25:17.841Z,59.5
2017-06-25T03:27:19.527Z,59.5
2017-06-25T03:29:21.212Z,58.9
2017-06-25T03:31:22.931Z,58.9
2017-06-25T03:33:24.639Z,58.9
2017-06-25T03:35:26.351Z,59.2
2017-06-25T03:37:28.039Z,59.4
2017-06-25T03:39:29.725Z,59.5
2017-06-25T03:41:31.437Z,59.2
2017-06-25T03:43:33.128Z,59.8
2017-06-25T03:45:34.816Z,59.6
2017-06-25T03:47:36.530Z,59.2
2017-06-25T03:49:38.225Z,59.7
2017-06-25T03:51:39.933Z,59.8
2017-06-25T03:53:41.621Z,59.6
2017-06-25T03:55:43.309Z,59.4
2017-06-25T03:57:45.023Z,59.7
2017-06-25T03:59:46.709Z,59.7
2017-06-25T04:01:48.403Z,59.8
2017-06-25T04:03:50.116Z,59.8
2017-06-25T04:05:51.810Z,59.6
2017-06-25T04:07:53.495Z,59.7
2017-06-25T04:09:56.578Z,60.3
2017-06-25T04:11:58.274Z,59.8
2017-06-25T04:13:59.985Z,59.6
2017-06-25T04:16:01.670Z,60.2
2017-06-25T04:18:03.356Z,60.1
2017-06-25T04:20:05.074Z,60.4
2017-06-25T04:22:06.758Z,60.4
2017-06-25T04:24:08.467Z,60.5
2017-06-25T04:26:10.159Z,60.2
2017-06-25T04:28:11.846Z,60.1
2017-06-25T04:30:13.557Z,60.3
2017-06-25T04:32:15.248Z,60.5
2017-06-25T04:34:16.936Z,60.5
2017-06-25T04:36:18.653Z,60.5
2017-06-25T04:38:20.345Z,60.2
2017-06-25T04:40:22.058Z,60.5
2017-06-25T04:42:23.762Z,59.8
2017-06-25T04:44:25.456Z,60.3
2017-06-25T04:46:27.161Z,60.5
2017-06-25T04:48:28.850Z,60.3
2017-06-25T04:50:30.537Z,60.9
2017-06-25T04:52:32.247Z,60.7
2017-06-25T04:54:33.932Z,60.7
2017-06-25T04:56:35.651Z,60.6
2017-06-25T04:58:37.343Z,61.0
2017-06-25T05:00:39.032Z,60.4
2017-06-25T05:02:40.750Z,60.6
2017-06-25T05:04:42.450Z,60.3
2017-06-25T05:06:44.171Z,60.3
2017-06-25T05:08:45.864Z,60.5
2017-06-25T05:10:47.551Z,60.6
2017-06-25T05:12:49.269Z,60.6
2017-06-25T05:14:50.957Z,60.4
2017-06-25T05:16:52.702Z,60.2
2017-06-25T05:18:54.365Z,61.0
2017-06-25T05:20:56.053Z,61.3
2017-06-25T05:22:57.763Z,61.4
2017-06-25T05:24:59.454Z,61.2
2017-06-25T05:27:01.141Z,61.4
2017-06-25T05:29:02.856Z,61.4
2017-06-25T05:31:04.554Z,61.4
2017-06-25T05:33:06.269Z,61.3
2017-06-25T05:35:07.956Z,60.8
2017-06-25T05:37:09.648Z,60.9
2017-06-25T05:39:11.365Z,60.7
2017-06-25T05:41:13.057Z,60.3
2017-06-25T05:43:14.750Z,60.8
2017-06-25T05:45:16.463Z,60.9
2017-06-25T05:47:18.150Z,60.8
2017-06-25T05:49:19.864Z,60.8
2017-06-25T05:51:21.581Z,61.1
2017-06-25T05:53:23.275Z,60.5
2017-06-25T05:55:24.996Z,59.5
2017-06-25T05:57:26.700Z,59.9
2017-06-25T05:59:28.396Z,59.6
2017-06-25T06:01:30.107Z,59.8
2017-06-25T06:03:31.791Z,60.3
2017-06-25T06:05:34.762Z,59.7
2017-06-25T06:07:36.455Z,60.3
2017-06-25T06:09:38.211Z,60.3
2017-06-25T06:11:39.978Z,60.9
2017-06-25T06:13:41.759Z,60.4
2017-06-25T06:15:43.518Z,60.3
2017-06-25T06:17:45.338Z,60.5
2017-06-25T06:19:47.024Z,60.6
2017-06-25T06:21:48.742Z,60.7
2017-06-25T06:23:50.433Z,59.7
2017-06-25T06:25:52.124Z,59.6
2017-06-25T06:27:53.942Z,59.8
2017-06-25T06:29:56.961Z,59.5
2017-06-25T06:31:59.191Z,60.2
2017-06-25T06:34:00.895Z,60.3
2017-06-25T06:36:02.767Z,59.9
2017-06-25T06:38:04.483Z,60.2
2017-06-25T06:40:07.401Z,60.4
2017-06-25T06:42:09.117Z,60.4
2017-06-25T06:44:10.835Z,59.6
2017-06-25T06:46:12.532Z,58.9
2017-06-25T06:48:14.269Z,59.0
2017-06-25T06:50:17.556Z,59.1
2017-06-25T06:52:20.060Z,59.0
2017-06-25T06:54:21.748Z,59.3
2017-06-25T06:56:23.452Z,59.2
2017-06-25T06:58:27.152Z,59.1
2017-06-25T07:00:28.868Z,59.5
2017-06-25T07:02:32.504Z,59.7
2017-06-25T07:04:35.037Z,59.5
2017-06-25T07:06:36.731Z,59.5
2017-06-25T07:08:38.459Z,59.6
2017-06-25T07:10:42.683Z,59.8
2017-06-25T07:12:44.396Z,59.7
2017-06-25T07:14:46.913Z,59.8
2017-06-25T07:16:48.599Z,59.7
2017-06-25T07:18:50.376Z,59.5
2017-06-25T07:20:52.112Z,59.2
2017-06-25T07:22:53.794Z,58.5
2017-06-25T07:24:55.519Z,59.2
2017-06-25T07:26:58.959Z,58.6
2017-06-25T07:29:02.959Z,58.2
2017-06-25T07:31:05.369Z,58.9
2017-06-25T07:33:07.087Z,59.0
2017-06-25T07:35:08.794Z,59.0
2017-06-25T07:37:10.678Z,58.5
2017-06-25T07:39:12.402Z,58.2
2017-06-25T07:41:14.119Z,58.8
2017-06-25T07:43:18.040Z,59.7
2017-06-25T07:45:19.805Z,59.8
2017-06-25T07:47:21.695Z,60.2
2017-06-25T07:49:23.382Z,59.9
2017-06-25T07:51:25.116Z,59.9
2017-06-25T07:53:27.179Z,60.0
2017-06-25T07:55:28.865Z,60.3
2017-06-25T07:57:31.488Z,59.8
2017-06-25T07:59:33.657Z,59.8
2017-06-25T08:01:35.350Z,60.4
2017-06-25T08:03:37.062Z,61.0
2017-06-25T08:05:38.770Z,59.6
2017-06-25T08:07:41.850Z,59.4
2017-06-25T08:09:44.769Z,60.5
2017-06-25T08:11:48.695Z,59.2
2017-06-25T08:13:51.912Z,58.0
2017-06-25T08:15:57.278Z,59.0
2017-06-25T08:18:00.756Z,59.0
2017-06-25T08:20:03.869Z,59.6
2017-06-25T08:22:07.099Z,60.3
2017-06-25T08:24:11.292Z,60.6
2017-06-25T08:26:14.305Z,60.6
2017-06-25T08:28:18.094Z,62.0
2017-06-25T08:30:21.679Z,61.5
2017-06-25T08:32:25.550Z,59.7
2017-06-25T08:34:28.460Z,59.9
2017-06-25T08:36:38.266Z,59.1
2017-06-25T08:38:42.548Z,59.5
2017-06-25T08:40:46.258Z,58.8
2017-06-25T08:42:49.226Z,59.6
2017-06-25T08:44:52.757Z,58.2
2017-06-25T08:46:55.783Z,58.5
2017-06-25T08:49:00.034Z,59.1
2017-06-25T08:51:03.031Z,59.8
2017-06-25T08:53:05.921Z,58.6
2017-06-25T08:55:10.498Z,59.8
2017-06-25T08:57:13.481Z,59.4
2017-06-25T08:59:16.533Z,58.9
2017-06-25T09:01:19.806Z,59.5
2017-06-25T09:03:24.489Z,57.0
2017-06-25T09:05:28.050Z,58.1
2017-06-25T09:07:32.056Z,58.6
2017-06-25T09:09:35.076Z,57.0
2017-06-25T09:11:39.701Z,58.0
2017-06-25T09:13:42.746Z,58.9
2017-06-25T09:15:45.669Z,58.5
2017-06-25T09:17:50.277Z,56.8
2017-06-25T09:19:53.316Z,57.7
2017-06-25T09:21:56.291Z,57.4
2017-06-25T09:24:01.009Z,57.6
2017-06-25T09:26:03.929Z,56.9
2017-06-25T09:28:07.258Z,57.6
2017-06-25T09:30:11.537Z,56.2
2017-06-25T09:32:14.515Z,56.0
2017-06-25T09:34:18.550Z,56.8
2017-06-25T09:35:39.335Z,56.8
2017-06-25T09:37:42.342Z,55.4
2017-06-25T09:39:45.636Z,54.3
2017-06-25T09:41:50.335Z,55.3
2017-06-25T09:43:52.051Z,55.2
2017-06-25T09:45:55.141Z,55.9
2017-06-25T09:48:00.328Z,54.4
2017-06-25T09:50:03.259Z,55.3
2017-06-25T09:52:06.540Z,55.6
2017-06-25T09:54:09.562Z,53.6
2017-06-25T09:56:12.566Z,52.6
2017-06-25T10:00:28.975Z,52.6
2017-06-25T10:02:32.066Z,53.5
2017-06-25T10:04:34.779Z,53.2
2017-06-25T10:06:40.535Z,52.0
2017-06-25T10:08:48.545Z,52.2
2017-06-25T10:10:52.452Z,53.3
2017-06-25T10:12:55.213Z,55.8
2017-06-25T10:14:58.371Z,54.7
2017-06-25T10:17:00.992Z,54.7
2017-06-25T10:19:03.763Z,53.2
2017-06-25T10:21:07.088Z,53.3
2017-06-25T10:23:08.838Z,53.2
2017-06-25T10:25:10.599Z,52.7
2017-06-25T10:27:14.100Z,53.3
2017-06-25T10:29:24.178Z,52.6
2017-06-25T10:31:33.835Z,50.8
2017-06-25T10:33:41.281Z,52.5
2017-06-25T10:35:46.151Z,52.1
2017-06-25T10:37:55.847Z,50.9
2017-06-25T10:42:58.785Z,52.6
2017-06-25T10:50:35.808Z,52.5
2017-06-25T10:52:44.997Z,50.9
2017-06-25T10:54:55.347Z,50.5
2017-06-25T10:57:04.260Z,49.5
2017-06-25T11:11:03.826Z,51.0
2017-06-25T11:13:09.445Z,52.1
2017-06-25T11:15:15.776Z,51.2
2017-06-25T11:17:17.868Z,50.2
2017-06-25T11:19:21.475Z,50.0
2017-06-25T11:21:24.280Z,50.9
2017-06-25T11:23:28.229Z,50.3
2017-06-25T11:25:31.260Z,50.7
2017-06-25T11:28:33.248Z,48.9
2017-06-25T11:33:34.610Z,50.6
2017-06-25T11:38:36.427Z,50.3
2017-06-25T11:43:39.267Z,50.3
2017-06-25T11:48:40.994Z,51.6
2017-06-25T11:53:44.433Z,51.2
2017-06-25T11:58:46.216Z,51.3
2017-06-25T12:03:48.518Z,52.1
2017-06-25T12:08:50.301Z,52.1
2017-06-25T12:13:52.096Z,52.3
2017-06-25T12:18:53.888Z,51.5
2017-06-25T12:23:55.665Z,52.1
2017-06-25T12:28:57.436Z,51.8
2017-06-25T12:33:59.269Z,51.9
2017-06-25T12:39:01.041Z,51.9
2017-06-25T12:44:02.831Z,52.0
2017-06-25T12:49:04.621Z,51.6
2017-06-25T12:54:06.413Z,52.0
2017-06-25T12:59:08.248Z,51.8
2017-06-25T13:04:10.030Z,51.9
2017-06-25T13:09:11.890Z,52.6
2017-06-25T13:12:45.610Z,57.7
2017-06-25T13:17:47.649Z,51.0
2017-06-25T13:22:49.474Z,51.3
2017-06-25T13:27:56.791Z,51.8
2017-06-25T13:56:29.686Z,52.2
2017-06-25T14:10:07.345Z,50.1
2017-06-25T14:15:17.353Z,49.9
2017-06-25T14:32:43.995Z,50.1
2017-06-25T14:36:08.317Z,50.2
2017-06-25T14:37:51.466Z,50.9
2017-06-25T14:40:23.754Z,51.0
2017-06-25T14:42:55.782Z,49.3
2017-06-25T14:45:27.589Z,50.2
2017-06-25T14:47:59.635Z,49.7
2017-06-25T14:50:31.344Z,48.9
2017-06-25T14:53:03.083Z,48.9
2017-06-25T14:55:34.783Z,49.0
2017-06-25T14:58:06.524Z,49.1
2017-06-25T15:00:38.239Z,49.6
2017-06-25T15:03:10.029Z,49.5
2017-06-25T15:05:41.729Z,49.2
2017-06-25T15:08:13.465Z,49.3
2017-06-25T15:10:45.213Z,49.4
2017-06-25T15:13:16.944Z,49.5
2017-06-25T15:15:48.645Z,49.5
2017-06-25T15:18:20.391Z,49.6
2017-06-25T15:20:52.100Z,48.5
2017-06-25T15:23:23.846Z,48.9
2017-06-25T15:25:55.554Z,48.6
2017-06-25T15:28:27.298Z,48.6
2017-06-25T15:30:59.026Z,48.5
2017-06-25T15:33:30.760Z,48.5
2017-06-25T15:36:02.536Z,48.6
2017-06-25T15:38:34.279Z,47.8
2017-06-25T15:41:05.978Z,47.7
2017-06-25T15:43:37.715Z,48.7
2017-06-25T15:46:09.467Z,48.1
2017-06-25T15:48:41.569Z,48.3
2017-06-25T15:51:13.543Z,48.4
2017-06-25T15:53:46.279Z,47.6
2017-06-25T15:56:18.646Z,47.9
2017-06-25T15:58:50.456Z,47.7
2017-06-25T16:01:22.317Z,47.5
2017-06-25T16:03:54.403Z,47.4
2017-06-25T16:06:26.110Z,47.8
2017-06-25T16:08:58.253Z,48.3
2017-06-25T16:11:30.012Z,47.4
2017-06-25T16:14:01.797Z,48.8
2017-06-25T16:16:35.340Z,50.4
2017-06-25T16:19:07.079Z,49.8
2017-06-25T16:21:39.146Z,49.6
2017-06-25T16:24:10.992Z,50.1
2017-06-25T16:26:42.796Z,49.8
2017-06-25T16:29:14.523Z,50.4
2017-06-25T16:31:46.220Z,50.0
2017-06-25T16:34:17.960Z,49.7
2017-06-25T16:36:49.857Z,49.7
2017-06-25T16:39:21.595Z,49.1
2017-06-25T16:41:53.381Z,48.8
2017-06-25T16:44:25.129Z,49.1
2017-06-25T16:47:02.708Z,48.6
2017-06-25T16:49:36.728Z,48.8
2017-06-25T16:52:08.429Z,49.6
2017-06-25T16:54:40.170Z,49.7
2017-06-25T16:57:12.656Z,49.7
2017-06-25T16:59:44.525Z,49.6
2017-06-25T17:02:16.255Z,49.1
2017-06-25T17:15:30.237Z,49.5
2017-06-25T17:19:50.788Z,49.7
2017-06-25T17:22:30.531Z,48.9
2017-06-25T17:30:14.032Z,49.7
2017-06-25T17:32:54.849Z,48.8
2017-06-25T17:53:26.907Z,48.2
2017-06-25T17:55:58.936Z,48.8
2017-06-25T17:58:34.326Z,48.9
2017-06-25T18:01:06.124Z,49.7
2017-06-25T18:03:38.154Z,49.5
2017-06-25T18:06:09.879Z,50.1
2017-06-25T18:08:42.145Z,50.8
2017-06-25T18:11:14.103Z,50.8
2017-06-25T18:13:46.239Z,50.8
2017-06-25T18:16:18.450Z,50.9
2017-06-25T18:18:51.350Z,52.0
2017-06-25T18:21:23.205Z,52.4
2017-06-25T18:23:55.398Z,52.8
2017-06-25T18:26:27.531Z,51.3
2017-06-25T18:28:59.683Z,52.0
2017-06-25T18:31:33.406Z,53.4
2017-06-25T18:34:05.262Z,53.2
2017-06-25T18:36:37.151Z,52.8
2017-06-25T18:39:09.077Z,52.1
2017-06-25T18:41:40.780Z,51.6
2017-06-25T18:44:17.517Z,52.7
2017-06-25T18:46:49.869Z,52.7
2017-06-25T18:49:21.641Z,52.1
2017-06-25T18:51:53.893Z,53.4
2017-06-25T18:54:25.632Z,52.5
2017-06-25T18:56:57.389Z,52.8
2017-06-25T18:59:33.427Z,52.8
2017-06-25T19:02:05.092Z,53.1
2017-06-25T19:04:36.935Z,53.3
2017-06-25T19:07:08.810Z,53.4
2017-06-25T19:09:40.599Z,52.6
2017-06-25T19:12:14.057Z,52.4
2017-06-25T19:14:46.940Z,53.4
2017-06-25T19:17:19.640Z,52.4
2017-06-25T19:19:51.376Z,51.7
2017-06-25T19:22:23.095Z,51.5
2017-06-25T19:24:54.895Z,52.5
2017-06-25T19:27:28.981Z,51.8
2017-06-25T19:30:00.805Z,51.9
2017-06-25T19:32:32.569Z,51.7
2017-06-25T19:35:04.468Z,52.5
2017-06-25T19:37:36.166Z,52.4
2017-06-25T19:40:08.051Z,52.5
2017-06-25T19:42:39.748Z,53.2
2017-06-25T19:45:13.272Z,53.2
2017-06-25T19:47:44.969Z,53.2
2017-06-25T19:50:18.603Z,53.4
2017-06-25T19:52:54.489Z,53.4
2017-06-25T19:55:26.261Z,54.2
2017-06-25T19:57:57.964Z,53.4
2017-06-25T20:00:29.693Z,53.0
2017-06-25T20:03:01.462Z,53.4
2017-06-25T20:05:33.199Z,52.6
2017-06-25T20:08:04.899Z,51.9
2017-06-25T20:10:36.656Z,51.2
2017-06-25T20:13:08.375Z,51.3
2017-06-25T20:15:40.141Z,51.8
2017-06-25T20:18:11.904Z,52.0
2017-06-25T20:20:43.892Z,51.7
2017-06-25T20:23:16.523Z,51.7
2017-06-25T20:25:48.251Z,52.1
2017-06-25T20:28:19.961Z,53.4
2017-06-25T20:30:51.844Z,51.7
2017-06-25T20:33:23.623Z,52.4
2017-06-25T20:35:56.405Z,53.4
2017-06-25T20:38:28.412Z,52.2
2017-06-25T20:41:00.162Z,52.7
2017-06-25T20:43:31.869Z,52.9
2017-06-25T20:46:03.673Z,52.7
2017-06-25T20:48:35.379Z,53.2
2017-06-25T20:51:07.115Z,53.3
2017-06-25T20:53:38.817Z,53.0
2017-06-25T20:56:10.543Z,52.8
2017-06-25T20:58:42.236Z,52.3
2017-06-25T21:01:13.976Z,52.2
2017-06-25T21:03:45.676Z,54.6
2017-06-25T21:06:17.415Z,52.6
2017-06-25T21:08:49.116Z,53.9
2017-06-25T21:11:20.852Z,53.2
2017-06-25T21:13:52.550Z,53.3
2017-06-25T21:16:24.285Z,53.3
2017-06-25T21:18:55.981Z,52.8
2017-06-25T21:21:27.717Z,53.3
2017-06-25T21:23:59.418Z,53.1
2017-06-25T21:26:31.303Z,53.2
2017-06-25T21:29:03.014Z,53.9
2017-06-25T21:31:34.744Z,53.8
2017-06-25T21:34:06.445Z,53.9
2017-06-25T21:36:38.207Z,53.4
2017-06-25T21:39:09.913Z,53.2
2017-06-25T21:41:41.676Z,53.1
2017-06-25T21:44:13.375Z,54.1
2017-06-25T21:46:45.147Z,54.6
2017-06-25T21:49:16.823Z,53.5
2017-06-25T21:51:48.557Z,53.8
2017-06-25T21:54:20.253Z,54.2
2017-06-25T21:56:51.991Z,55.5
2017-06-25T21:59:23.689Z,53.3
2017-06-25T22:01:55.420Z,55.1
2017-06-25T22:04:27.123Z,53.4
2017-06-25T22:06:58.856Z,53.3
2017-06-25T22:09:30.575Z,54.0
2017-06-25T22:12:02.294Z,53.2
2017-06-25T22:14:33.993Z,53.6
2017-06-25T22:17:05.717Z,53.6
2017-06-25T22:19:37.412Z,53.5
2017-06-25T22:22:09.128Z,53.2
2017-06-25T22:24:40.825Z,53.4
2017-06-25T22:27:12.580Z,53.1
2017-06-25T22:29:44.289Z,54.1
2017-06-25T22:32:16.056Z,53.1
2017-06-25T22:34:47.801Z,53.5
2017-06-25T22:37:19.548Z,53.5
2017-06-25T22:39:51.262Z,54.4
2017-06-25T22:42:23.003Z,53.8
2017-06-25T22:44:54.702Z,53.7
2017-06-25T22:47:26.426Z,54.4
2017-06-25T22:49:58.131Z,53.7
2017-06-25T22:52:29.858Z,54.2
2017-06-25T22:55:01.559Z,54.3
2017-06-25T22:57:33.283Z,54.2
2017-06-25T23:00:04.973Z,54.1
2017-06-25T23:02:36.701Z,54.5
2017-06-25T23:05:08.396Z,54.2
2017-06-25T23:07:40.118Z,54.3
2017-06-25T23:10:11.818Z,54.4
2017-06-25T23:12:43.552Z,54.5
2017-06-25T23:15:15.255Z,54.1
2017-06-25T23:17:46.997Z,54.2
2017-06-25T23:20:18.694Z,54.2
2017-06-25T23:22:50.422Z,54.3
2017-06-25T23:25:22.129Z,54.2
2017-06-25T23:27:53.864Z,54.2
2017-06-25T23:30:25.561Z,54.7
2017-06-25T23:32:57.290Z,54.9
2017-06-25T23:35:28.994Z,53.9
2017-06-25T23:38:00.725Z,55.0
2017-06-25T23:40:32.426Z,54.8
2017-06-25T23:43:04.149Z,54.8
2017-06-25T23:45:35.848Z,55.2
2017-06-25T23:48:07.575Z,55.3
2017-06-25T23:50:39.270Z,55.4
2017-06-25T23:53:11.001Z,55.2
2017-06-25T23:55:42.702Z,55.4
2017-06-25T23:58:14.433Z,55.5
